createdAt,value
2023-03-08T00:00:39.384Z,92.93
2023-03-08T00:03:33.421Z,92.95
2023-03-08T00:06:29.389Z,93.10
2023-03-08T00:09:23.387Z,93.39
2023-03-08T00:12:10.443Z,93.42
2023-03-08T00:14:43.497Z,93.54
2023-03-08T00:17:31.369Z,93.89
2023-03-08T00:20:06.087Z,94.18
2023-03-08T00:22:52.385Z,93.94
2023-03-08T00:25:32.405Z,93.89
2023-03-08T00:28:19.371Z,94.03
2023-03-08T00:30:52.572Z,94.24
2023-03-08T00:33:40.455Z,94.32
2023-03-08T00:36:19.507Z,94.03
2023-03-08T00:39:06.416Z,94.29
2023-03-08T00:41:40.489Z,94.32
2023-03-08T00:44:27.400Z,94.49
2023-03-08T00:47:00.514Z,94.47
2023-03-08T00:49:47.451Z,94.73
2023-03-08T00:52:20.503Z,94.70
2023-03-08T00:55:14.409Z,94.89
2023-03-08T00:58:08.410Z,95.00
2023-03-08T01:01:02.480Z,95.11
2023-03-08T01:03:49.427Z,95.19
2023-03-08T01:06:23.064Z,95.18
2023-03-08T01:09:09.399Z,95.21
2023-03-08T01:11:43.350Z,95.31
2023-03-08T01:14:30.401Z,95.30
2023-03-08T01:17:10.408Z,95.38
2023-03-08T01:19:57.439Z,95.59
2023-03-08T01:22:37.384Z,95.52
2023-03-08T01:25:31.409Z,96.01
2023-03-08T01:28:25.412Z,95.79
2023-03-08T01:31:23.439Z,96.18
2023-03-08T01:33:56.517Z,96.03
2023-03-08T01:36:43.484Z,96.31
2023-03-08T01:39:16.523Z,96.22
2023-03-08T01:42:03.382Z,96.30
2023-03-08T01:45:05.502Z,96.83
2023-03-08T01:47:52.442Z,96.66
2023-03-08T01:50:26.576Z,96.88
2023-03-08T01:53:13.400Z,97.08
2023-03-08T01:55:46.538Z,97.01
2023-03-08T01:58:33.417Z,97.11
2023-03-08T02:01:06.576Z,97.09
2023-03-08T02:03:54.406Z,97.32
2023-03-08T02:06:35.399Z,97.24
2023-03-08T02:09:22.458Z,97.56
2023-03-08T02:11:56.531Z,97.36
2023-03-08T02:14:43.468Z,97.60
2023-03-08T02:17:25.430Z,97.56
2023-03-08T02:20:28.427Z,97.70
2023-03-08T02:23:22.415Z,97.70
2023-03-08T02:26:17.575Z,97.62
2023-03-08T02:29:04.438Z,97.70
2023-03-08T02:31:44.435Z,97.62
2023-03-08T02:34:31.448Z,97.55
2023-03-08T02:37:11.459Z,97.77
2023-03-08T02:39:58.426Z,98.06
2023-03-08T02:42:31.533Z,97.94
2023-03-08T02:45:18.424Z,98.08
2023-03-08T02:47:58.441Z,98.32
2023-03-08T02:50:52.429Z,98.58
2023-03-08T02:53:39.437Z,98.43
2023-03-08T02:56:12.559Z,98.63
2023-03-08T02:58:59.437Z,98.97
2023-03-08T03:01:32.592Z,98.68
2023-03-08T03:04:19.450Z,98.76
2023-03-08T03:06:59.431Z,99.04
2023-03-08T03:09:53.439Z,99.02
2023-03-08T03:12:40.445Z,99.48
2023-03-08T03:15:22.461Z,99.54
2023-03-08T03:18:09.454Z,99.63
2023-03-08T03:20:42.545Z,99.65
2023-03-08T03:23:29.431Z,99.99
2023-03-08T03:26:25.446Z,99.75
2023-03-08T03:29:06.458Z,99.92
2023-03-08T03:31:53.440Z,99.95
2023-03-08T03:34:26.858Z,100.00
2023-03-08T03:37:13.437Z,99.97
2023-03-08T03:39:47.244Z,100.00
2023-03-08T03:42:33.436Z,100.00
2023-03-08T03:45:16.440Z,100.00
2023-03-08T03:47:56.550Z,100.00
2023-03-08T03:50:36.457Z,100.00
2023-03-08T03:53:16.547Z,100.00
2023-03-08T03:56:04.452Z,100.00
2023-03-08T03:58:59.459Z,100.00
2023-03-08T04:01:46.463Z,100.00
2023-03-08T04:04:19.576Z,100.00
2023-03-08T04:07:06.464Z,100.00
2023-03-08T04:09:39.561Z,99.90
2023-03-08T04:12:26.486Z,99.52
2023-03-08T04:15:00.568Z,98.85
2023-03-08T04:17:47.468Z,98.78
2023-03-08T04:20:46.509Z,98.79
2023-03-08T04:23:40.464Z,98.75
2023-03-08T04:26:34.476Z,97.41
2023-03-08T04:29:21.460Z,95.97
2023-03-08T04:32:04.624Z,92.41
2023-03-08T04:34:51.461Z,91.20
2023-03-08T04:37:31.456Z,88.05
2023-03-08T04:40:25.499Z,86.09
2023-03-08T04:43:12.457Z,86.37
2023-03-08T04:45:45.585Z,86.19
2023-03-08T04:48:32.477Z,85.79
2023-03-08T04:51:08.724Z,86.75
2023-03-08T04:53:55.479Z,85.90
2023-03-08T04:56:28.586Z,86.08
2023-03-08T04:59:15.480Z,83.26
2023-03-08T05:01:48.623Z,84.90
2023-03-08T05:04:35.551Z,84.15
2023-03-08T05:07:08.589Z,84.50
2023-03-08T05:09:55.468Z,83.50
2023-03-08T05:12:28.591Z,84.11
2023-03-08T05:15:15.481Z,83.37
2023-03-08T05:17:48.587Z,82.88
2023-03-08T05:20:35.494Z,84.18
2023-03-08T05:23:08.577Z,83.91
2023-03-08T05:25:58.508Z,83.77
2023-03-08T05:28:48.502Z,83.06
2023-03-08T05:31:35.534Z,82.99
2023-03-08T05:34:15.524Z,83.24
2023-03-08T05:37:09.513Z,81.93
2023-03-08T05:39:56.495Z,82.69
2023-03-08T05:42:30.583Z,83.38
2023-03-08T05:45:17.573Z,83.46
2023-03-08T05:47:50.620Z,82.54
2023-03-08T05:50:37.496Z,82.50
2023-03-08T05:53:17.510Z,82.04
2023-03-08T05:56:11.518Z,82.28
2023-03-08T05:59:05.492Z,82.33
2023-03-08T06:01:52.544Z,82.42
2023-03-08T06:04:25.610Z,81.66
2023-03-08T06:07:12.512Z,81.61
2023-03-08T06:09:45.621Z,82.25
2023-03-08T06:12:32.502Z,82.54
2023-03-08T06:15:15.483Z,82.38
2023-03-08T06:18:09.500Z,81.78
2023-03-08T06:21:05.490Z,81.73
2023-03-08T06:23:40.616Z,82.21
2023-03-08T06:26:27.518Z,81.83
2023-03-08T06:29:00.623Z,81.33
2023-03-08T06:31:47.525Z,79.73
2023-03-08T06:34:21.702Z,79.15
2023-03-08T06:37:08.522Z,79.15
2023-03-08T06:39:44.564Z,78.84
2023-03-08T06:42:41.237Z,77.49
2023-03-08T06:45:18.663Z,76.51
2023-03-08T06:48:05.510Z,76.75
2023-03-08T06:50:39.628Z,74.96
2023-03-08T06:53:26.521Z,74.35
2023-03-08T06:56:02.986Z,75.15
2023-03-08T06:58:50.518Z,73.51
2023-03-08T07:01:30.566Z,73.37
2023-03-08T07:04:24.546Z,73.68
2023-03-08T07:07:18.539Z,71.59
2023-03-08T07:10:05.527Z,72.00
2023-03-08T07:12:46.729Z,71.74
2023-03-08T07:15:36.638Z,71.13
2023-03-08T07:18:16.523Z,71.99
2023-03-08T07:21:10.563Z,71.42
2023-03-08T07:24:05.558Z,71.41
2023-03-08T07:26:52.507Z,70.37
2023-03-08T07:29:25.646Z,70.73
2023-03-08T07:32:12.662Z,70.13
2023-03-08T07:34:45.648Z,71.41
2023-03-08T07:37:32.538Z,70.14
2023-03-08T07:40:12.548Z,70.73
2023-03-08T07:43:06.542Z,68.89
2023-03-08T07:46:00.637Z,69.26
2023-03-08T07:48:47.563Z,70.38
2023-03-08T07:51:20.710Z,68.86
2023-03-08T07:54:07.563Z,69.01
2023-03-08T07:56:40.660Z,68.65
2023-03-08T07:59:27.537Z,67.50
2023-03-08T08:02:00.674Z,68.57
2023-03-08T08:04:47.553Z,67.47
2023-03-08T08:07:22.695Z,66.77
2023-03-08T08:10:09.564Z,68.28
2023-03-08T08:12:42.907Z,68.74
2023-03-08T08:15:32.549Z,67.48
2023-03-08T08:18:13.548Z,65.78
2023-03-08T08:21:18.555Z,66.62
2023-03-08T08:24:05.549Z,66.29
2023-03-08T08:26:38.667Z,66.01
2023-03-08T08:29:25.558Z,63.51
2023-03-08T08:31:58.660Z,63.00
2023-03-08T08:34:45.552Z,64.42
2023-03-08T08:37:25.581Z,65.15
2023-03-08T08:40:14.584Z,63.53
2023-03-08T08:42:54.589Z,65.48
2023-03-08T08:45:48.632Z,63.37
2023-03-08T08:48:36.596Z,63.98
2023-03-08T08:51:17.556Z,62.56
2023-03-08T08:54:04.632Z,61.57
2023-03-08T08:56:42.709Z,61.57
2023-03-08T08:59:29.568Z,60.43
2023-03-08T09:02:09.638Z,59.22
2023-03-08T09:04:56.603Z,59.52
2023-03-08T09:07:29.673Z,59.20
2023-03-08T09:10:17.586Z,58.45
2023-03-08T09:12:58.550Z,59.39
2023-03-08T09:15:52.563Z,59.53
2023-03-08T09:18:46.636Z,59.38
2023-03-08T09:21:34.600Z,57.29
2023-03-08T09:24:17.597Z,58.36
2023-03-08T09:27:11.585Z,57.13
2023-03-08T09:30:05.583Z,56.09
2023-03-08T09:32:52.676Z,57.09
2023-03-08T09:35:25.715Z,57.31
2023-03-08T09:38:12.598Z,57.05
2023-03-08T09:40:58.698Z,57.22
2023-03-08T09:44:18.609Z,57.10
2023-03-08T09:47:01.927Z,57.46
2023-03-08T09:49:51.579Z,56.28
2023-03-08T09:53:19.603Z,54.29
2023-03-08T09:56:17.597Z,55.31
2023-03-08T09:59:26.691Z,54.71
2023-03-08T10:02:41.620Z,55.74
2023-03-08T10:05:24.609Z,57.17
2023-03-08T10:08:29.616Z,56.07
2023-03-08T10:11:37.612Z,56.70
2023-03-08T10:14:33.596Z,57.27
2023-03-08T10:17:31.615Z,57.76
2023-03-08T10:20:33.610Z,57.25
2023-03-08T10:23:32.671Z,55.26
2023-03-08T10:26:21.603Z,57.26
2023-03-08T10:29:01.588Z,57.40
2023-03-08T10:31:57.638Z,57.48
2023-03-08T10:34:44.617Z,56.10
2023-03-08T10:37:24.873Z,55.61
2023-03-08T10:40:36.691Z,54.62
2023-03-08T10:43:41.625Z,55.25
2023-03-08T10:46:31.684Z,55.26
2023-03-08T10:49:27.848Z,55.51
2023-03-08T10:52:30.628Z,56.04
2023-03-08T10:55:34.617Z,55.98
2023-03-08T10:58:43.636Z,56.09
2023-03-08T11:01:42.616Z,56.09
2023-03-08T11:04:32.724Z,57.10
2023-03-08T11:07:17.676Z,57.02
2023-03-08T11:10:20.103Z,55.97
2023-03-08T11:12:53.729Z,56.39
2023-03-08T11:15:44.650Z,56.71
2023-03-08T11:18:35.815Z,56.98
2023-03-08T11:21:56.662Z,57.36
2023-03-08T11:24:41.631Z,57.07
2023-03-08T11:28:01.732Z,57.12
2023-03-08T11:31:12.747Z,56.47
2023-03-08T11:33:54.847Z,56.95
2023-03-08T11:36:52.699Z,56.02
2023-03-08T11:39:50.911Z,55.91
2023-03-08T11:42:57.827Z,55.76
2023-03-08T11:46:22.907Z,55.60
2023-03-08T11:49:48.845Z,55.97
2023-03-08T11:52:59.813Z,55.95
2023-03-08T11:55:48.844Z,56.67
2023-03-08T11:58:49.258Z,56.34
2023-03-08T12:01:44.835Z,56.35
2023-03-08T12:04:46.974Z,56.12
2023-03-08T12:07:49.914Z,55.68
2023-03-08T12:10:32.051Z,56.21
2023-03-08T12:13:18.940Z,55.99
2023-03-08T12:16:03.972Z,55.01
2023-03-08T12:18:56.242Z,54.99
2023-03-08T12:21:49.189Z,54.63
2023-03-08T12:24:41.835Z,55.39
2023-03-08T12:27:34.032Z,54.21
2023-03-08T12:30:44.927Z,54.73
2023-03-08T12:33:34.086Z,54.53
2023-03-08T12:36:11.142Z,54.54
2023-03-08T12:39:02.887Z,54.82
2023-03-08T12:41:38.081Z,55.58
2023-03-08T12:44:33.947Z,54.77
2023-03-08T12:47:24.072Z,54.50
2023-03-08T12:50:25.599Z,53.75
2023-03-08T12:53:05.926Z,53.72
2023-03-08T12:55:59.967Z,52.85
2023-03-08T12:59:06.905Z,52.65
2023-03-08T13:02:12.892Z,52.67
2023-03-08T13:05:34.960Z,53.29
2023-03-08T13:08:22.891Z,52.61
2023-03-08T13:10:58.992Z,51.76
2023-03-08T13:14:02.946Z,52.34
2023-03-08T13:16:48.183Z,52.00
2023-03-08T13:19:37.928Z,50.98
2023-03-08T13:22:37.060Z,52.12
2023-03-08T13:25:39.978Z,52.83
2023-03-08T13:28:21.118Z,52.39
2023-03-08T13:31:10.953Z,52.83
2023-03-08T13:33:54.917Z,53.46
2023-03-08T13:36:41.919Z,52.58
2023-03-08T13:39:36.902Z,53.60
2023-03-08T13:42:30.903Z,53.26
2023-03-08T13:45:26.942Z,53.02
2023-03-08T13:48:04.002Z,53.53
2023-03-08T13:50:53.931Z,53.63
2023-03-08T13:53:32.040Z,53.57
2023-03-08T13:56:31.912Z,53.64
2023-03-08T13:59:07.090Z,54.18
2023-03-08T14:01:57.932Z,53.59
2023-03-08T14:04:44.034Z,53.94
2023-03-08T14:07:31.922Z,53.32
2023-03-08T14:10:06.012Z,53.31
2023-03-08T14:12:52.923Z,54.13
2023-03-08T14:15:33.127Z,53.47
2023-03-08T14:18:31.934Z,53.54
2023-03-08T14:21:14.973Z,53.96
2023-03-08T14:24:08.970Z,54.26
2023-03-08T14:26:56.299Z,54.59
2023-03-08T14:29:49.963Z,55.06
2023-03-08T14:32:38.968Z,54.96
2023-03-08T14:35:35.968Z,54.80
2023-03-08T14:38:55.947Z,54.66
2023-03-08T14:41:43.920Z,55.23
2023-03-08T14:44:33.916Z,55.07
2023-03-08T14:47:32.926Z,55.25
2023-03-08T14:50:32.058Z,55.27
2023-03-08T14:53:37.930Z,55.94
2023-03-08T14:56:37.962Z,56.33
2023-03-08T14:59:31.914Z,55.99
2023-03-08T15:02:23.917Z,56.53
2023-03-08T15:05:05.919Z,57.38
2023-03-08T15:07:55.918Z,56.78
2023-03-08T15:10:38.004Z,56.92
2023-03-08T15:13:27.912Z,56.82
2023-03-08T15:16:02.039Z,57.16
2023-03-08T15:18:49.939Z,57.09
2023-03-08T15:21:36.927Z,57.30
2023-03-08T15:24:25.979Z,57.88
2023-03-08T15:27:00.027Z,58.08
2023-03-08T15:29:47.962Z,57.99
2023-03-08T15:32:29.026Z,58.23
2023-03-08T15:35:23.969Z,59.54
2023-03-08T15:38:13.448Z,59.00
2023-03-08T15:40:53.914Z,59.16
2023-03-08T15:43:48.960Z,59.30
2023-03-08T15:46:39.700Z,59.82
2023-03-08T15:49:13.263Z,60.25
2023-03-08T15:52:00.956Z,61.81
2023-03-08T15:54:34.044Z,61.86
2023-03-08T15:57:20.953Z,62.81
2023-03-08T15:59:54.091Z,63.23
2023-03-08T16:02:40.967Z,64.28
2023-03-08T16:05:22.958Z,64.31
2023-03-08T16:08:17.018Z,65.46
2023-03-08T16:11:11.106Z,65.56
2023-03-08T16:14:06.947Z,66.06
2023-03-08T16:16:53.982Z,66.47
2023-03-08T16:19:27.070Z,66.58
2023-03-08T16:22:14.970Z,67.71
2023-03-08T16:24:54.965Z,67.21
2023-03-08T16:27:49.960Z,67.36
2023-03-08T16:30:45.964Z,68.01
2023-03-08T16:33:36.447Z,68.04
2023-03-08T16:36:10.135Z,68.39
2023-03-08T16:39:03.973Z,68.57
2023-03-08T16:41:58.008Z,68.74
2023-03-08T16:44:45.975Z,69.18
2023-03-08T16:47:19.191Z,69.51
2023-03-08T16:50:06.960Z,69.77
2023-03-08T16:52:40.037Z,70.31
2023-03-08T16:55:27.022Z,70.67
2023-03-08T16:58:00.059Z,70.30
2023-03-08T17:00:47.993Z,70.54
2023-03-08T17:03:22.064Z,70.65
2023-03-08T17:06:08.959Z,70.93
2023-03-08T17:08:42.076Z,70.92
2023-03-08T17:11:31.961Z,71.06
2023-03-08T17:14:12.075Z,70.77
2023-03-08T17:16:59.025Z,71.14
2023-03-08T17:19:32.140Z,70.82
2023-03-08T17:22:18.962Z,71.01
2023-03-08T17:24:52.076Z,71.16
2023-03-08T17:27:38.974Z,71.45
2023-03-08T17:30:14.300Z,71.41
2023-03-08T17:33:00.983Z,71.33
2023-03-08T17:35:34.238Z,71.48
2023-03-08T17:38:27.965Z,71.38
2023-03-08T17:41:24.965Z,71.36
2023-03-08T17:44:11.975Z,71.41
2023-03-08T17:46:45.097Z,71.35
2023-03-08T17:49:32.010Z,71.43
2023-03-08T17:52:05.070Z,71.56
2023-03-08T17:54:54.353Z,71.82
2023-03-08T17:57:28.046Z,71.49
2023-03-08T18:00:20.044Z,71.98
2023-03-08T18:02:54.121Z,71.78
2023-03-08T18:05:40.993Z,71.94
2023-03-08T18:08:14.134Z,72.57
2023-03-08T18:11:00.995Z,72.59
2023-03-08T18:13:41.100Z,72.39
2023-03-08T18:16:29.068Z,72.62
2023-03-08T18:19:02.468Z,73.09
2023-03-08T18:21:48.992Z,73.35
2023-03-08T18:24:22.113Z,73.74
2023-03-08T18:27:12.042Z,74.13
2023-03-08T18:29:54.284Z,73.90
2023-03-08T18:32:41.025Z,74.54
2023-03-08T18:35:15.082Z,74.68
2023-03-08T18:38:09.019Z,74.80
2023-03-08T18:41:02.973Z,75.12
2023-03-08T18:43:58.022Z,75.84
2023-03-08T18:46:53.144Z,76.32
2023-03-08T18:49:50.377Z,76.83
2023-03-08T18:52:37.010Z,77.28
2023-03-08T18:55:10.210Z,77.61
2023-03-08T18:57:57.000Z,78.38
2023-03-08T19:00:31.252Z,78.25
2023-03-08T19:03:18.035Z,78.98
2023-03-08T19:05:51.135Z,78.65
2023-03-08T19:08:39.010Z,79.43
2023-03-08T19:11:36.055Z,79.39
2023-03-08T19:14:31.021Z,79.64
2023-03-08T19:17:18.014Z,80.60
2023-03-08T19:19:51.168Z,80.14
2023-03-08T19:22:38.056Z,81.12
2023-03-08T19:25:19.011Z,81.51
2023-03-08T19:28:06.021Z,81.50
2023-03-08T19:30:49.044Z,82.52
2023-03-08T19:33:43.018Z,82.39
2023-03-08T19:36:30.025Z,83.54
2023-03-08T19:39:03.277Z,83.45
2023-03-08T19:41:50.031Z,84.28
2023-03-08T19:44:23.232Z,83.65
2023-03-08T19:47:11.038Z,84.24
2023-03-08T19:49:51.038Z,84.44
2023-03-08T19:52:38.027Z,84.85
2023-03-08T19:55:20.019Z,84.65
2023-03-08T19:58:07.065Z,84.81
2023-03-08T20:00:47.038Z,84.96
2023-03-08T20:03:34.219Z,85.33
2023-03-08T20:06:14.058Z,84.91
2023-03-08T20:09:08.051Z,85.54
2023-03-08T20:12:01.056Z,86.01
2023-03-08T20:14:34.131Z,85.98
2023-03-08T20:17:21.059Z,87.35
2023-03-08T20:19:54.310Z,87.25
2023-03-08T20:22:41.041Z,88.91
2023-03-08T20:25:23.033Z,88.43
2023-03-08T20:28:10.049Z,88.33
2023-03-08T20:30:44.189Z,88.02
2023-03-08T20:33:31.041Z,88.03
2023-03-08T20:36:05.198Z,88.52
2023-03-08T20:38:59.163Z,89.37
2023-03-08T20:41:39.078Z,90.06
2023-03-08T20:44:19.047Z,91.31
2023-03-08T20:46:52.168Z,90.45
2023-03-08T20:49:39.075Z,90.42
2023-03-08T20:52:21.092Z,90.56
2023-03-08T20:55:08.056Z,90.49
2023-03-08T20:57:48.058Z,90.70
2023-03-08T21:00:35.086Z,91.34
2023-03-08T21:03:08.170Z,91.30
2023-03-08T21:05:55.089Z,91.09
2023-03-08T21:08:28.173Z,91.08
2023-03-08T21:11:15.154Z,91.38
2023-03-08T21:13:49.247Z,92.18
2023-03-08T21:16:37.073Z,92.41
2023-03-08T21:19:18.036Z,92.35
2023-03-08T21:22:05.166Z,92.02
2023-03-08T21:24:45.068Z,92.21
2023-03-08T21:27:39.082Z,92.59
2023-03-08T21:30:27.175Z,92.85
2023-03-08T21:33:00.254Z,93.16
2023-03-08T21:35:49.088Z,93.24
2023-03-08T21:38:24.641Z,93.14
2023-03-08T21:41:11.055Z,92.98
2023-03-08T21:43:44.232Z,93.48
2023-03-08T21:46:31.141Z,93.66
2023-03-08T21:49:04.226Z,93.40
2023-03-08T21:51:51.080Z,93.28
2023-03-08T21:54:32.081Z,93.10
2023-03-08T21:57:26.172Z,93.83
2023-03-08T22:00:20.072Z,93.85
2023-03-08T22:03:14.129Z,94.29
2023-03-08T22:06:01.086Z,94.40
2023-03-08T22:08:34.242Z,94.64
2023-03-08T22:11:22.074Z,94.33
2023-03-08T22:13:57.278Z,94.85
2023-03-08T22:16:44.070Z,95.71
2023-03-08T22:19:24.093Z,95.52
2023-03-08T22:22:18.076Z,95.49
2023-03-08T22:25:12.088Z,96.00
2023-03-08T22:28:00.224Z,95.54
2023-03-08T22:30:34.338Z,95.41
2023-03-08T22:33:22.131Z,95.27
2023-03-08T22:35:55.257Z,95.49
2023-03-08T22:38:49.120Z,95.52
2023-03-08T22:41:43.114Z,95.79
2023-03-08T22:44:37.069Z,95.55
2023-03-08T22:47:31.110Z,96.27
2023-03-08T22:50:26.117Z,96.30
2023-03-08T22:53:20.091Z,96.48
2023-03-08T22:56:07.080Z,96.49
2023-03-08T22:58:41.200Z,96.37
2023-03-08T23:01:30.155Z,96.67
2023-03-08T23:04:05.338Z,97.05
2023-03-08T23:06:54.217Z,97.11
2023-03-08T23:09:35.121Z,97.17
2023-03-08T23:12:23.346Z,97.11
2023-03-08T23:15:04.183Z,96.92
2023-03-08T23:17:51.223Z,97.24
2023-03-08T23:20:25.426Z,97.59
2023-03-08T23:23:05.146Z,97.60
2023-03-08T23:25:50.139Z,98.03
2023-03-08T23:28:23.232Z,97.75
2023-03-08T23:31:23.234Z,97.99
2023-03-08T23:34:00.721Z,97.75
2023-03-08T23:36:47.192Z,98.27
2023-03-08T23:39:20.325Z,98.08
2023-03-08T23:42:08.105Z,98.79
2023-03-08T23:44:41.230Z,98.67
2023-03-08T23:47:28.278Z,98.85
2023-03-08T23:50:01.242Z,98.62
2023-03-08T23:52:48.109Z,98.76
2023-03-08T23:55:21.201Z,98.70
2023-03-08T23:58:08.124Z,98.80
